Time;durP1;ratioP1;P1;durP2;ratioP2;P2;SDS_P1;SDS_P2;PMS_P1;PMS_P2;Temp;Humidity;BMP_temperature;BMP_pressure;BME280_temperature;BME280_humidity;BME280_pressure;Samples;Min_cycle;Max_cycle;Signal;HPM_P1;HPM_P2
2022/08/12 00:44:44;;;;;;;15.38;5.35;;;;;;;;;;5090175;28;20063;-79
2022/08/12 00:47:12;;;;;;;11.80;5.47;;;;;;;;;;5091351;28;20544;-78
2022/08/12 00:49:38;;;;;;;9.88;5.30;;;;;;;;;;5089089;28;20035;-77
2022/08/12 00:52:05;;;;;;;10.90;5.85;;;;;;;;;;5091605;28;20020;-76
2022/08/12 00:54:33;;;;;;;7.95;5.20;;;;;;;;;;5092013;28;20038;-78
2022/08/12 00:57:03;;;;;;;8.00;5.20;;;;;;;;;;5102156;27;20032;-78
2022/08/12 00:59:29;;;;;;;8.93;5.10;;;;;;;;;;5090360;28;20563;-78
2022/08/12 01:01:56;;;;;;;16.00;5.25;;;;;;;;;;5089928;28;20043;-78
2022/08/12 01:12:42;;;;;;;11.98;5.22;;;;;;;;;;5089766;28;20054;-77
2022/08/12 01:15:09;;;;;;;8.02;4.22;;;;;;;;;;5089786;28;20024;-78
2022/08/12 01:17:35;;;;;;;9.45;4.68;;;;;;;;;;5088644;28;20035;-77
2022/08/12 01:20:04;;;;;;;13.38;4.82;;;;;;;;;;5114336;27;20035;-76
2022/08/12 01:22:49;;;;;;;14.88;5.68;;;;;;;;;;5090529;28;20072;-78
2022/08/12 01:25:19;;;;;;;12.15;4.82;;;;;;;;;;5088093;28;20020;-76
2022/08/12 01:27:46;;;;;;;15.77;5.60;;;;;;;;;;5087928;28;20039;-78
2022/08/12 01:30:13;;;;;;;11.02;4.97;;;;;;;;;;5088243;28;20078;-79
2022/08/12 01:32:40;;;;;;;16.98;5.38;;;;;;;;;;5113806;27;20119;-78
2022/08/12 01:35:10;;;;;;;14.38;5.00;;;;;;;;;;5088508;28;20024;-79
2022/08/12 01:37:43;;;;;;;5.40;4.15;;;;;;;;;;5088459;28;20089;-77
2022/08/12 01:40:10;;;;;;;8.38;4.28;;;;;;;;;;5086166;28;20067;-80
2022/08/12 01:42:47;;;;;;;11.82;4.68;;;;;;;;;;5116486;27;20024;-77
2022/08/12 01:45:16;;;;;;;8.90;5.10;;;;;;;;;;5089412;28;20058;-75
2022/08/12 01:47:54;;;;;;;9.52;4.78;;;;;;;;;;5084347;28;20127;-77
2022/08/12 01:50:25;;;;;;;11.73;4.68;;;;;;;;;;5083742;28;20074;-78
2022/08/12 01:52:54;;;;;;;11.18;5.00;;;;;;;;;;5086224;28;20027;-77
2022/08/12 01:55:34;;;;;;;5.50;3.35;;;;;;;;;;5115730;27;20032;-77
2022/08/12 01:58:26;;;;;;;7.47;4.90;;;486.70;1356.80;;;;;;5086894;28;20094;-77
2022/08/12 02:01:02;;;;;;;9.98;4.78;;;486.40;1382.40;;;;;;5087087;28;20600;-78
2022/08/12 02:13:08;;;;;;;6.40;4.18;;;461.30;1408.00;;;;;;5086099;28;20605;-77
2022/08/12 02:15:57;;;;;;;5.00;3.58;;;461.40;1433.60;;;;;;5085619;28;20585;-78
2022/08/12 02:18:44;;;;;;;5.25;3.45;;;461.60;1408.00;;;;;;5101248;27;20040;-77
2022/08/12 02:21:36;;;;;;;6.15;3.60;;;461.50;1408.00;;;;;;5109405;27;20052;-78
2022/08/12 02:24:03;;;;;;;6.45;4.30;;;461.50;1433.60;;;;;;5110740;27;20060;-78
2022/08/12 02:26:32;;;;;;;6.88;4.78;;;461.70;1408.00;;;;;;5084716;28;20379;-79
2022/08/12 02:28:58;;;;;;;7.15;4.05;;;486.60;1382.40;;;;;;5084414;28;20107;-78
2022/08/12 02:31:26;;;;;;;9.20;4.45;;;;;;;;;;5084416;28;20036;-78
2022/08/12 02:33:53;;;;;;;9.32;4.95;;;;;;;;;;5084718;28;20008;-78
2022/08/12 02:36:20;;;;;;;10.40;3.90;;;;;;;;;;5084412;28;20024;-78
2022/08/12 02:38:47;;;;;;;8.98;4.22;;;;;;;;;;5084032;28;20040;-76
2022/08/12 02:41:15;;;;;;;8.52;5.00;;;;;;;;;;5108133;27;20024;-78
2022/08/12 02:43:51;;;;;;;6.43;3.88;;;;;;;;;;5110173;27;21481;-78
2022/08/12 02:46:28;;;;;;;8.18;4.32;;;;;;;;;;5085181;28;20039;-78
2022/08/12 02:48:54;;;;;;;7.78;4.70;;;;;;;;;;5108446;27;20028;-76
2022/08/12 02:51:23;;;;;;;5.93;3.95;;;;;;;;;;5106807;27;20111;-78
2022/08/12 02:53:50;;;;;;;9.73;6.47;;;;;;;;;;5107620;27;20471;-77
2022/08/12 02:56:16;;;;;;;10.95;4.68;;;;;;;;;;5085612;28;20108;-76
2022/08/12 02:58:44;;;;;;;7.43;3.95;;;;;;;;;;5084153;28;20051;-77
2022/08/12 03:01:11;;;;;;;7.85;4.72;;;;;;;;;;5085084;28;20028;-77
2022/08/12 03:03:38;;;;;;;8.00;4.32;;;;;;;;;;5085189;28;20035;-78
2022/08/12 03:06:08;;;;;;;10.40;6.45;;;;;;;;;;5109973;27;20066;-76
2022/08/12 03:08:42;;;;;;;9.05;4.88;;;;;;;;;;5110669;27;20028;-77
2022/08/12 03:11:27;;;;;;;10.48;4.70;;;;;;;;;;5108164;27;20032;-78
2022/08/12 03:13:56;;;;;;;4.78;4.00;;;;;;;;;;5084334;28;20116;-78
2022/08/12 03:16:23;;;;;;;6.80;3.95;;;;;;;;;;5082951;28;20028;-77
2022/08/12 03:18:50;;;;;;;7.07;3.58;;;;;;;;;;5084297;28;20028;-78
2022/08/12 03:21:18;;;;;;;6.00;4.10;;;;;;;;;;5083090;28;20055;-79
2022/08/12 03:23:45;;;;;;;10.82;4.38;;;;;;;;;;5107313;27;20616;-78
2022/08/12 03:26:12;;;;;;;7.32;4.05;;;;;;;;;;5082346;28;20028;-78
2022/08/12 03:28:50;;;;;;;7.88;3.00;;;;;;;;;;5107827;27;20110;-77
2022/08/12 03:31:17;;;;;;;6.72;4.05;;;;;;;;;;5083458;28;21576;-78
2022/08/12 03:33:45;;;;;;;6.93;3.45;;;;;;;;;;5084282;28;20035;-80
2022/08/12 03:36:16;;;;;;;8.45;3.72;;;;;;;;;;5087609;28;20020;-77
2022/08/12 03:38:44;;;;;;;15.88;3.88;;;;;;;;;;5126950;27;20106;-78
2022/08/12 03:41:34;;;;;;;7.88;3.28;;;;;;;;;;5080489;28;20405;-77
2022/08/12 04:00:46;;;;;;;11.57;6.25;;;;;;;;;;5083704;28;20163;-78
2022/08/12 04:05:58;;;;;;;25.95;16.08;;;;;;;;;;5083115;28;20051;-76
2022/08/12 04:08:25;;;;;;;18.17;11.27;;;;;;;;;;5083061;28;20028;-76
2022/08/12 04:13:36;;;;;;;15.05;8.73;;;;;;;;;;5082926;28;20085;-77
2022/08/12 04:16:05;;;;;;;15.55;6.30;;;;;;;;;;5083842;28;20032;-77
2022/08/12 04:18:31;;;;;;;21.55;6.57;;;;;;;;;;5106674;28;20172;-76
2022/08/12 04:20:57;;;;;;;14.88;5.88;;;;;;;;;;5105776;27;20048;-76
2022/08/12 04:23:24;;;;;;;14.90;6.15;;;;;;;;;;5082990;28;20024;-78
2022/08/12 04:25:50;;;;;;;13.65;6.13;;;;;;;;;;5082262;28;20116;-79
2022/08/12 04:28:24;;;;;;;12.15;6.18;;;;;;;;;;5082464;28;20022;-75
2022/08/12 04:30:50;;;;;;;10.90;6.22;;;;;;;;;;5080567;28;20039;-76
2022/08/12 04:33:18;;;;;;;24.98;5.93;;;;;;;;;;5081299;28;20426;-76
2022/08/12 04:35:44;;;;;;;12.00;7.03;;;;;;;;;;5081458;28;20528;-77
2022/08/12 04:38:10;;;;;;;14.00;7.82;;;;;;;;;;5082744;28;21846;-76
2022/08/12 04:40:36;;;;;;;23.70;10.82;;;;;;;;;;5082132;28;20071;-77
2022/08/12 04:43:03;;;;;;;26.38;10.15;;;;;;;;;;5084314;28;20028;-77
2022/08/12 04:45:30;;;;;;;19.38;9.30;;;;;;;;;;5086727;28;20020;-76
2022/08/12 04:47:56;;;;;;;17.25;8.88;;;;;;;;;;5108093;27;20035;-76
2022/08/12 04:50:23;;;;;;;22.38;9.15;;;;;;;;;;5086764;28;20035;-76
2022/08/12 04:52:50;;;;;;;16.08;7.60;;;;;;;;;;5086399;28;20118;-76
2022/08/12 04:55:17;;;;;;;17.70;7.05;;;;;;;;;;5086652;28;20536;-76
2022/08/12 04:57:43;;;;;;;9.75;6.45;;;;;;;;;;5086579;28;20503;-76
2022/08/12 05:00:12;;;;;;;12.25;6.63;;;;;;;;;;5085746;28;20662;-76
2022/08/12 05:02:38;;;;;;;13.52;6.00;;;;;;;;;;5084951;28;20055;-75
2022/08/12 05:05:07;;;;;;;13.88;5.88;;;;;;;;;;5086094;28;20459;-78
2022/08/12 05:07:34;;;;;;;10.10;6.28;;;;;;;;;;5084548;28;20028;-77
2022/08/12 05:10:01;;;;;;;10.77;6.00;;;;;;;;;;5086678;28;20457;-77
2022/08/12 05:12:28;;;;;;;13.18;5.82;;;;;;;;;;5084916;28;20023;-79
2022/08/12 05:14:54;;;;;;;9.48;6.43;;;;;;;;;;5086705;28;20043;-77
2022/08/12 05:17:20;;;;;;;18.33;6.40;;;;;;;;;;5084229;28;20012;-78
2022/08/12 05:19:46;;;;;;;13.73;5.97;;;;;;;;;;5085420;28;20039;-77
2022/08/12 05:22:12;;;;;;;14.02;7.47;;;;;;;;;;5086368;28;20032;-78
2022/08/12 05:24:38;;;;;;;13.00;7.75;;;;;;;;;;5084391;28;20141;-77
2022/08/12 05:27:05;;;;;;;10.73;7.20;;;;;;;;;;5111375;27;20043;-77
2022/08/12 05:29:31;;;;;;;17.08;7.00;;;;;;;;;;5085533;28;20035;-79
2022/08/12 05:31:57;;;;;;;12.50;6.68;;;;;;;;;;5085554;28;20024;-76
2022/08/12 05:34:24;;;;;;;13.65;6.97;;;;;;;;;;5110681;27;20458;-79
2022/08/12 05:36:50;;;;;;;11.18;6.47;;;;;;;;;;5085359;28;20252;-78
2022/08/12 05:39:16;;;;;;;26.83;7.85;;;;;;;;;;5086647;28;20043;-78
2022/08/12 05:41:43;;;;;;;19.33;7.35;;;;;;;;;;5085879;28;20028;-80
2022/08/12 05:44:15;;;;;;;23.67;7.78;;;;;;;;;;5085341;28;20012;-78
2022/08/12 05:46:41;;;;;;;14.75;7.43;;;;;;;;;;5085984;28;20027;-75
2022/08/12 05:49:08;;;;;;;18.85;7.80;;;;;;;;;;5086602;28;20028;-77
2022/08/12 05:51:35;;;;;;;15.10;8.38;;;;;;;;;;5085942;28;20157;-78
2022/08/12 05:54:01;;;;;;;21.08;7.70;;;;;;;;;;5085549;28;20024;-78
2022/08/12 05:56:32;;;;;;;16.40;8.70;;;;;;;;;;5085569;28;20024;-76
2022/08/12 05:59:00;;;;;;;21.92;8.13;;;;;;;;;;5086131;28;20119;-78
2022/08/12 06:01:26;;;;;;;9.25;5.72;;;;;;;;;;5082175;28;20474;-77
2022/08/12 06:03:53;;;;;;;7.25;4.50;;;;;;;;;;5110621;27;20039;-77
2022/08/12 06:06:19;;;;;;;9.40;4.93;;;;;;;;;;5084334;28;20028;-79
2022/08/12 06:08:52;;;;;;;6.97;4.50;;;;;;;;;;5083272;28;20031;-78
2022/08/12 06:11:18;;;;;;;11.05;5.25;;;;;;;;;;5083850;28;20028;-76
2022/08/12 06:13:45;;;;;;;9.35;5.40;;;;;;;;;;5083232;28;20023;-78
2022/08/12 06:16:12;;;;;;;5.30;3.95;;;;;;;;;;5082611;28;20490;-77
2022/08/12 06:18:38;;;;;;;8.63;4.00;;;;;;;;;;5085486;28;20035;-76
2022/08/12 06:21:06;;;;;;;10.52;7.03;;;;;;;;;;5085251;28;20040;-77
2022/08/12 06:23:32;;;;;;;8.05;4.45;;;;;;;;;;5084021;28;20036;-80
2022/08/12 06:25:58;;;;;;;7.88;3.58;;;;;;;;;;5085151;28;20016;-79
2022/08/12 06:28:24;;;;;;;7.53;4.70;;;;;;;;;;5084110;28;20430;-76
2022/08/12 06:30:51;;;;;;;10.85;8.07;;;;;;;;;;5084960;28;20047;-77
2022/08/12 06:33:17;;;;;;;13.57;7.85;;;;;;;;;;5083970;28;20635;-76
2022/08/12 06:35:44;;;;;;;8.88;6.72;;;;;;;;;;5085227;28;20039;-79
2022/08/12 06:38:14;;;;;;;15.35;4.80;;;;;;;;;;5084100;28;20055;-76
2022/08/12 06:43:26;;;;;;;7.47;4.18;;;;;;;;;;5085264;28;20046;-77
2022/08/12 06:45:53;;;;;;;12.27;4.18;;;;;;;;;;5083566;28;20051;-76
2022/08/12 06:48:19;;;;;;;16.85;5.05;;;;;;;;;;5109520;27;20487;-77
2022/08/12 06:50:45;;;;;;;14.98;4.15;;;;;;;;;;5085732;28;20024;-77
2022/08/12 06:53:11;;;;;;;5.50;4.20;;;;;;;;;;5108747;27;20055;-77
2022/08/12 06:55:38;;;;;;;12.48;4.13;;;;;;;;;;5082891;28;20038;-77
2022/08/12 06:58:05;;;;;;;9.70;4.53;;;;;;;;;;5084946;28;20017;-76
2022/08/12 07:00:34;;;;;;;10.60;4.97;;;;;;;;;;5084339;28;20032;-76
2022/08/12 07:03:01;;;;;;;20.15;4.70;;;;;;;;;;5111072;27;20487;-77
2022/08/12 07:05:28;;;;;;;10.43;4.82;;;;;;;;;;5084636;28;20028;-79
2022/08/12 07:08:00;;;;;;;12.98;5.22;;;;;;;;;;5084928;28;20031;-80
2022/08/12 07:10:26;;;;;;;4.82;3.67;;;;;;;;;;5100438;28;20028;-78
2022/08/12 07:12:55;;;;;;;8.50;4.50;;;;;;;;;;5110993;27;20607;-79
2022/08/12 07:15:23;;;;;;;14.77;4.68;;;;;;;;;;5110222;27;20030;-78
2022/08/12 07:17:50;;;;;;;9.90;4.47;;;;;;;;;;5084493;28;20116;-78
2022/08/12 07:20:16;;;;;;;14.55;4.22;;;;;;;;;;5082735;28;20063;-78
2022/08/12 07:22:42;;;;;;;8.52;4.25;;;;;;;;;;5109422;27;20509;-80
2022/08/12 07:27:54;;;;;;;11.88;4.40;;;;;;;;;;5078330;28;20090;-78
2022/08/12 07:30:20;;;;;;;11.90;3.70;;;;;;;;;;5082097;28;20024;-76
2022/08/12 07:32:50;;;;;;;5.28;3.72;;;;;;;;;;5115816;28;20024;-78
2022/08/12 07:35:17;;;;;;;8.25;3.58;;;;;;;;;;5079764;28;20487;-77
2022/08/12 07:37:43;;;;;;;9.43;3.38;;;;;;;;;;5081600;28;20066;-78
2022/08/12 07:40:12;;;;;;;8.93;3.40;;;;;;;;;;5079489;28;20063;-79
2022/08/12 07:42:40;;;;;;;8.10;3.53;;;;;;;;;;5077933;28;20372;-77
2022/08/12 07:45:08;;;;;;;7.25;3.42;;;;;;;;;;5083875;28;20028;-79
2022/08/12 07:47:34;;;;;;;6.03;3.45;;;;;;;;;;5088047;28;20121;-80
2022/08/12 07:50:01;;;;;;;5.68;2.97;;;;;;;;;;5121410;28;20016;-79
2022/08/12 07:52:27;;;;;;;11.50;3.50;;;;;;;;;;5121952;27;20027;-79
2022/08/12 07:54:54;;;;;;;8.65;2.90;;;;;;;;;;5088414;28;20066;-79
2022/08/12 07:57:20;;;;;;;10.05;3.47;;;;;;;;;;5121572;28;20073;-78
2022/08/12 07:59:47;;;;;;;8.90;3.83;;;;;;;;;;5087286;28;20032;-79
2022/08/12 08:02:13;;;;;;;6.55;4.25;;;;;;;;;;5087471;28;20471;-79
2022/08/12 08:04:59;;;;;;;5.07;3.50;;;;;;;;;;5087243;28;20145;-79
2022/08/12 08:07:28;;;;;;;5.53;3.83;;;;;;;;;;5113029;27;20060;-78
2022/08/12 08:09:56;;;;;;;12.18;4.38;;;;;;;;;;5068559;28;20028;-78
2022/08/12 08:15:16;;;;;;;8.63;3.20;;;;;;;;;;5089695;28;20090;-77
2022/08/12 08:18:00;;;;;;;10.48;3.75;;;;;;;;;;5083955;28;20039;-78
2022/08/12 08:20:29;;;;;;;5.38;2.97;;;;;;;;;;5076831;28;20482;-78
2022/08/12 08:22:57;;;;;;;6.10;3.00;;;;;;;;;;5092741;28;20065;-78
2022/08/12 08:25:30;;;;;;;6.97;3.20;;;;;;;;;;5126635;27;20032;-78
2022/08/12 08:27:57;;;;;;;9.93;3.28;;;;;;;;;;5093938;28;20099;-76
2022/08/12 08:30:23;;;;;;;10.90;3.55;;;;;;;;;;5126200;27;20032;-78
2022/08/12 08:32:49;;;;;;;5.63;3.05;;;;;;;;;;5119583;27;20039;-79
2022/08/12 08:35:15;;;;;;;8.18;3.25;;;;;;;;;;5119442;27;20028;-77
2022/08/12 08:37:45;;;;;;;10.98;3.33;;;;;;;;;;5093049;28;20128;-75
2022/08/12 08:42:57;;;;;;;8.25;3.15;;;;;;;;;;5079528;28;20482;-75
2022/08/12 08:45:23;;;;;;;8.88;2.72;;;;;;;;;;5126076;27;20028;-75
2022/08/12 08:47:50;;;;;;;6.60;3.15;;;;;;;;;;5093234;28;20023;-76
2022/08/12 08:50:17;;;;;;;5.60;2.85;;;;;;;;;;5126245;27;20133;-76
2022/08/12 08:52:43;;;;;;;8.63;3.08;;;;;;;;;;5093500;28;20099;-77
2022/08/12 08:55:12;;;;;;;7.28;2.90;;;;;;;;;;5093481;28;20103;-75
2022/08/12 08:57:39;;;;;;;12.40;3.42;;;;;;;;;;5092909;28;20024;-78
2022/08/12 09:00:05;;;;;;;7.72;2.72;;;;;;;;;;5092896;28;20186;-81
2022/08/12 09:02:31;;;;;;;6.60;2.95;;;;;;;;;;5091646;28;20035;-76
2022/08/12 09:04:57;;;;;;;5.47;3.08;;;;;;;;;;5091619;28;20044;-78
2022/08/12 09:07:24;;;;;;;5.55;3.08;;;;;;;;;;5092865;28;20146;-77
2022/08/12 09:09:51;;;;;;;9.13;3.25;;;;;;;;;;5093056;28;20068;-77
2022/08/12 09:15:02;;;;;;;4.97;3.80;;;;;;;;;;5092943;28;20047;-78
2022/08/12 09:17:29;;;;;;;8.93;4.90;;;;;;;;;;5125348;27;20099;-79
2022/08/12 09:19:55;;;;;;;7.38;3.00;;;;;;;;;;5079287;28;20036;-77
2022/08/12 09:22:21;;;;;;;6.13;3.88;;;;;;;;;;5091490;28;20016;-80
2022/08/12 09:24:48;;;;;;;9.80;4.20;;;;;;;;;;5092953;28;20013;-78
2022/08/12 09:27:16;;;;;;;6.10;3.65;;;;;;;;;;5107304;27;20025;-79
2022/08/12 09:29:44;;;;;;;6.10;3.15;;;;;;;;;;5081696;28;20012;-78
2022/08/12 09:32:12;;;;;;;5.28;3.20;;;;;;;;;;5092693;28;20580;-81
2022/08/12 09:34:38;;;;;;;7.00;3.70;;;;;;;;;;5091818;28;20024;-79
2022/08/12 09:37:04;;;;;;;4.70;3.20;;;;;;;;;;5125389;27;20107;-79
2022/08/12 09:39:30;;;;;;;9.48;4.07;;;;;;;;;;5104288;27;20036;-77
2022/08/12 09:47:27;;;;;;;8.80;3.85;;;;;;;;;;5092540;28;20040;-77
2022/08/12 09:49:54;;;;;;;5.30;3.22;;;;;;;;;;5077500;28;20040;-79
2022/08/12 09:52:21;;;;;;;6.18;3.42;;;;;;;;;;5124981;27;20028;-78
2022/08/12 09:54:47;;;;;;;6.80;3.55;;;;;;;;;;5091776;28;20020;-78
2022/08/12 09:57:23;;;;;;;8.05;3.63;;;;;;;;;;5091698;28;20027;-79
2022/08/12 09:59:49;;;;;;;6.57;3.10;;;;;;;;;;5091695;28;20509;-82
2022/08/12 10:02:15;;;;;;;9.10;4.18;;;;;;;;;;5091701;28;20391;-80
2022/08/12 10:04:47;;;;;;;4.70;3.25;;;;;;;;;;5124727;27;20050;-77
2022/08/12 10:07:14;;;;;;;8.68;3.95;;;;;;;;;;5077846;28;20140;-76
2022/08/12 10:09:40;;;;;;;10.52;4.10;;;;;;;;;;5090401;28;20024;-80
2022/08/12 10:14:51;;;;;;;5.22;4.07;;;;;;;;;;5091652;28;20035;-80
2022/08/12 10:17:21;;;;;;;5.70;3.95;;;;;;;;;;5124117;27;20112;-79
2022/08/12 10:19:47;;;;;;;8.48;4.80;;;;;;;;;;5123835;27;20034;-79
2022/08/12 10:22:14;;;;;;;5.13;4.18;;;;;;;;;;5091302;28;20016;-81
2022/08/12 10:24:41;;;;;;;9.15;4.00;;;;;;;;;;5090275;28;20111;-76
2022/08/12 10:29:52;;;;;;;8.93;3.58;;;;;;;;;;5091534;28;20035;-79
2022/08/12 10:32:22;;;;;;;7.63;3.80;;;;;;;;;;5090629;28;20078;-79
2022/08/12 10:34:49;;;;;;;6.13;4.05;;;;;;;;;;5090985;28;20024;-80
2022/08/12 10:37:17;;;;;;;10.18;3.97;;;;;;;;;;5090791;28;20072;-79
2022/08/12 10:39:44;;;;;;;8.02;4.32;;;;;;;;;;5090224;28;20047;-78
2022/08/12 10:45:04;;;;;;;7.95;3.30;;;;;;;;;;5079986;28;20082;-79
2022/08/12 10:47:31;;;;;;;5.65;3.95;;;;;;;;;;5086631;28;20475;-77
2022/08/12 10:49:58;;;;;;;8.55;3.47;;;;;;;;;;5090806;28;20021;-80
2022/08/12 10:52:25;;;;;;;5.85;3.38;;;;;;;;;;5089769;28;20493;-80
2022/08/12 10:54:51;;;;;;;9.77;3.15;;;;;;;;;;5123543;27;20545;-77
2022/08/12 10:57:19;;;;;;;5.25;3.35;;;;;;;;;;5090106;28;20040;-79
2022/08/12 10:59:45;;;;;;;5.85;3.88;;;;;;;;;;5090893;28;20032;-78
2022/08/12 11:02:12;;;;;;;5.65;3.63;;;;;;;;;;5123663;27;20054;-77
2022/08/12 11:04:39;;;;;;;6.70;3.67;;;;;;;;;;5123685;27;20135;-78
2022/08/12 11:07:06;;;;;;;8.13;3.72;;;;;;;;;;5090409;28;20012;-77
2022/08/12 11:09:33;;;;;;;10.45;4.38;;;;;;;;;;5123105;27;20107;-77
2022/08/12 11:12:05;;;;;;;10.77;4.38;;;;;;;;;;5090537;28;20444;-77
2022/08/12 11:14:35;;;;;;;6.43;3.17;;;;;;;;;;5091534;28;20040;-79
2022/08/12 11:17:06;;;;;;;4.50;3.30;;;;;;;;;;5090786;28;20233;-77
2022/08/12 11:19:32;;;;;;;9.48;3.88;;;;;;;;;;5090692;28;20554;-77
2022/08/12 11:21:59;;;;;;;7.57;3.85;;;;;;;;;;5090333;28;20052;-77
2022/08/12 11:24:25;;;;;;;4.20;3.35;;;;;;;;;;5090303;28;20016;-76
2022/08/12 11:26:54;;;;;;;6.68;3.85;;;;;;;;;;5090235;28;20043;-78
2022/08/12 11:29:21;;;;;;;9.07;4.05;;;;;;;;;;5116347;27;20157;-77
2022/08/12 11:31:48;;;;;;;6.88;3.42;;;;;;;;;;5082785;28;20037;-76
2022/08/12 11:34:15;;;;;;;9.15;3.60;;;;;;;;;;5084899;28;20493;-80
2022/08/12 11:36:49;;;;;;;4.93;2.78;;;;;;;;;;5085246;28;20023;-75
2022/08/12 11:39:15;;;;;;;7.50;3.58;;;;;;;;;;5079730;28;20055;-76
2022/08/12 11:41:41;;;;;;;5.45;3.78;;;;;;;;;;5123175;28;20028;-75
2022/08/12 11:44:07;;;;;;;6.53;3.10;;;;;;;;;;5090076;28;20086;-74
2022/08/12 11:46:37;;;;;;;7.50;3.45;;;;;;;;;;5085700;28;20023;-78
2022/08/12 11:49:03;;;;;;;12.95;3.15;;;;;;;;;;5088708;28;20024;-78
2022/08/12 11:51:29;;;;;;;5.53;3.05;;;;;;;;;;5123554;27;20063;-78
2022/08/12 11:53:55;;;;;;;5.13;3.40;;;;;;;;;;5126967;27;20368;-76
2022/08/12 11:56:21;;;;;;;4.18;3.25;;;;;;;;;;5125629;27;20020;-78
2022/08/12 11:58:48;;;;;;;7.20;3.83;;;;;;;;;;5080656;28;20032;-80
2022/08/12 12:01:14;;;;;;;5.50;2.95;;;;;;;;;;5094456;28;20483;-78
2022/08/12 12:03:40;;;;;;;7.13;3.70;;;;;;;;;;5126806;27;20035;-76
2022/08/12 12:06:06;;;;;;;5.82;3.53;;;;;;;;;;5082927;28;20024;-78
2022/08/12 12:08:32;;;;;;;5.40;3.13;;;;;;;;;;5124038;27;20024;-77
2022/08/12 12:10:58;;;;;;;7.60;3.22;;;;;;;;;;5125426;27;20487;-76
2022/08/12 12:13:24;;;;;;;5.13;2.85;;;;;;;;;;5099778;28;20028;-76
2022/08/12 12:15:50;;;;;;;6.35;3.28;;;;;;;;;;5096118;28;20028;-77
2022/08/12 12:18:24;;;;;;;5.55;3.13;;;;;;;;;;5092385;28;20369;-78
2022/08/12 12:20:51;;;;;;;6.20;3.53;;;;;;;;;;5078565;28;20047;-75
2022/08/12 12:23:17;;;;;;;7.13;3.45;;;;;;;;;;5126126;27;20058;-79
2022/08/12 12:25:43;;;;;;;5.47;4.30;;;;;;;;;;5120333;27;20047;-78
2022/08/12 12:28:09;;;;;;;9.10;3.50;;;;;;;;;;5094247;28;20027;-79
2022/08/12 12:30:36;;;;;;;7.53;3.60;;;;;;;;;;5093298;28;20035;-75
2022/08/12 12:33:02;;;;;;;11.73;4.25;;;;;;;;;;5094438;28;20017;-78
2022/08/12 12:35:28;;;;;;;6.30;3.92;;;;;;;;;;5083339;28;20064;-77
2022/08/12 12:37:55;;;;;;;9.05;3.67;;;;;;;;;;5091046;28;20028;-78
2022/08/12 12:40:22;;;;;;;4.55;3.35;;;;;;;;;;5091230;28;20039;-79
2022/08/12 12:42:48;;;;;;;10.18;4.05;;;;;;;;;;5090965;28;20020;-77
2022/08/12 12:45:15;;;;;;;4.63;3.63;;;;;;;;;;5093675;28;20059;-78
2022/08/12 12:48:00;;;;;;;6.57;4.00;;;;;;;;;;5088714;28;20111;-78
2022/08/12 12:50:30;;;;;;;4.95;3.78;;;;;;;;;;5081167;28;20518;-78
2022/08/12 12:52:56;;;;;;;8.55;4.00;;;;;;;;;;5090111;28;20038;-77
2022/08/12 12:55:23;;;;;;;9.10;4.00;;;;;;;;;;5088187;28;20062;-78
2022/08/12 12:57:50;;;;;;;7.05;3.50;;;;;;;;;;5100321;28;20026;-80
2022/08/12 13:00:17;;;;;;;5.35;3.47;;;;;;;;;;5095893;28;20035;-79
2022/08/12 13:02:55;;;;;;;6.95;3.20;;;;;;;;;;5081469;28;20027;-79
2022/08/12 13:05:25;;;;;;;6.00;3.55;;;;;;;;;;5086674;28;20164;-78
2022/08/12 13:08:02;;;;;;;9.38;3.63;;;;;;;;;;5090869;28;20539;-77
2022/08/12 13:10:29;;;;;;;5.57;3.78;;;;;;;;;;5090515;28;20435;-78
2022/08/12 13:12:55;;;;;;;6.82;4.10;;;;;;;;;;5084352;28;20387;-78
2022/08/12 13:15:21;;;;;;;10.52;4.15;;;;;;;;;;5090571;28;20028;-78
2022/08/12 13:17:48;;;;;;;6.53;3.60;;;;;;;;;;5090166;28;20128;-78
2022/08/12 13:20:18;;;;;;;7.80;4.38;;;;;;;;;;5090387;28;20416;-77
2022/08/12 13:22:45;;;;;;;4.32;3.72;;;;;;;;;;5088767;28;20102;-76
2022/08/12 13:25:11;;;;;;;5.80;4.32;;;;;;;;;;5087525;28;20051;-77
2022/08/12 13:27:44;;;;;;;6.78;3.83;;;;;;;;;;5089240;28;20052;-76
2022/08/12 13:30:22;;;;;;;8.68;4.38;;;;;;;;;;5075089;28;20504;-78
2022/08/12 13:32:53;;;;;;;6.65;3.85;;;;;;;;;;5094746;28;20059;-80
2022/08/12 13:35:19;;;;;;;6.18;3.42;;;;;;;;;;5085727;28;20020;-77
2022/08/12 13:37:53;;;;;;;5.20;3.05;;;;;;;;;;5088854;28;20027;-78
2022/08/12 13:40:26;;;;;;;4.85;3.60;;;;;;;;;;5082736;28;20036;-75
2022/08/12 13:42:56;;;;;;;11.32;5.72;;;;;;;;;;5089565;28;20028;-74
2022/08/12 13:45:22;;;;;;;5.25;3.70;;;;;;;;;;5089807;28;20031;-78
2022/08/12 13:47:54;;;;;;;5.35;3.95;;;;;;;;;;5090003;28;20023;-76
2022/08/12 13:50:35;;;;;;;4.78;4.00;;;;;;;;;;5124503;27;20372;-76
2022/08/12 13:53:14;;;;;;;4.45;3.60;;;;;;;;;;5085331;28;20016;-78
2022/08/12 13:55:44;;;;;;;5.55;4.15;;;;;;;;;;5088588;28;20085;-76
2022/08/12 13:58:15;;;;;;;5.65;3.38;;;;;;;;;;5093455;28;20028;-77
2022/08/12 14:00:44;;;;;;;8.50;5.35;;;;;;;;;;5092087;28;20064;-77
2022/08/12 14:03:12;;;;;;;10.77;4.20;;;;;;;;;;5124085;27;20073;-79
2022/08/12 14:05:38;;;;;;;4.90;3.90;;;;;;;;;;5087493;28;20024;-79
2022/08/12 14:08:05;;;;;;;9.50;3.58;;;;;;;;;;5093920;28;20043;-76
2022/08/12 14:10:35;;;;;;;6.85;4.55;;;;;;;;;;5090529;28;20020;-77
2022/08/12 14:13:11;;;;;;;4.68;4.18;;;;;;;;;;5107779;27;20130;-78
2022/08/12 14:15:39;;;;;;;5.03;4.07;;;;;;;;;;5102752;27;20474;-76
2022/08/12 14:18:08;;;;;;;8.10;4.40;;;;;;;;;;5087225;28;20017;-75
2022/08/12 14:20:35;;;;;;;6.28;3.70;;;;;;;;;;5088750;28;20079;-76
2022/08/12 14:23:01;;;;;;;5.68;3.97;;;;;;;;;;5090273;28;20028;-77
2022/08/12 14:25:27;;;;;;;5.82;3.75;;;;;;;;;;5091068;28;20498;-76
2022/08/12 14:27:54;;;;;;;6.47;3.50;;;;;;;;;;5091487;28;20514;-77
2022/08/12 14:30:21;;;;;;;6.18;3.78;;;;;;;;;;5083132;28;20072;-79
2022/08/12 14:32:48;;;;;;;7.95;4.93;;;;;;;;;;5101159;28;20524;-78
2022/08/12 14:35:14;;;;;;;7.93;4.18;;;;;;;;;;5124085;27;20424;-76
2022/08/12 14:37:41;;;;;;;5.68;4.00;;;;;;;;;;5089296;28;20024;-77
2022/08/12 14:40:08;;;;;;;10.13;4.30;;;;;;;;;;5090573;28;20032;-76
2022/08/12 14:42:34;;;;;;;4.22;3.80;;;;;;;;;;5122165;27;20016;-76
2022/08/12 14:45:00;;;;;;;12.00;5.90;;;;;;;;;;5087531;28;20027;-78
2022/08/12 14:47:26;;;;;;;5.20;4.32;;;;;;;;;;5090007;28;20391;-77
2022/08/12 14:49:52;;;;;;;4.57;4.15;;;;;;;;;;5089588;28;20614;-77
2022/08/12 14:52:19;;;;;;;4.70;4.05;;;;;;;;;;5090275;28;20030;-77
2022/08/12 14:54:45;;;;;;;4.93;4.25;;;;;;;;;;5090085;28;20020;-77
2022/08/12 14:57:11;;;;;;;11.00;4.75;;;;;;;;;;5090692;28;20012;-77
2022/08/12 15:02:22;;;;;;;9.65;4.22;;;;;;;;;;5079144;28;20042;-79
2022/08/12 15:04:57;;;;;;;5.95;4.38;;;;;;;;;;5075667;28;20027;-78
2022/08/12 15:07:25;;;;;;;8.07;3.58;;;;;;;;;;5078156;28;20463;-76
2022/08/12 15:09:51;;;;;;;8.98;3.92;;;;;;;;;;5090352;28;20020;-77
2022/08/12 15:12:18;;;;;;;6.80;4.57;;;;;;;;;;5076119;28;20069;-78
2022/08/12 15:14:44;;;;;;;5.22;3.83;;;;;;;;;;5090373;28;20317;-76
2022/08/12 15:17:11;;;;;;;7.40;4.13;;;;;;;;;;5123669;27;20433;-77
2022/08/12 15:19:39;;;;;;;9.10;4.18;;;;;;;;;;5090454;28;20039;-78
2022/08/12 15:22:05;;;;;;;8.82;4.28;;;;;;;;;;5090155;28;20047;-79
2022/08/12 15:24:32;;;;;;;4.47;3.90;;;;;;;;;;5089192;28;20031;-76
2022/08/12 15:26:58;;;;;;;5.00;4.18;;;;;;;;;;5088736;28;20116;-76
2022/08/12 15:29:27;;;;;;;5.97;4.72;;;;;;;;;;5109607;27;20450;-77
2022/08/12 15:31:53;;;;;;;6.93;3.97;;;;;;;;;;5085772;28;20336;-78
2022/08/12 15:34:19;;;;;;;5.20;3.88;;;;;;;;;;5078765;28;20020;-76
2022/08/12 15:36:45;;;;;;;5.18;4.13;;;;;;;;;;5077644;28;20107;-79
2022/08/12 15:39:11;;;;;;;8.10;4.35;;;;;;;;;;5077195;28;20134;-76
2022/08/12 15:41:37;;;;;;;7.53;4.32;;;;;;;;;;5090464;28;20102;-76
2022/08/12 15:44:03;;;;;;;7.38;4.90;;;;;;;;;;5090290;28;20127;-77
2022/08/12 15:46:31;;;;;;;5.18;4.10;;;;;;;;;;5084632;28;20074;-77
2022/08/12 15:48:57;;;;;;;5.60;4.13;;;;;;;;;;5094087;28;20107;-76
2022/08/12 15:51:27;;;;;;;4.82;3.88;;;;;;;;;;5079210;28;20048;-78
2022/08/12 15:54:06;;;;;;;6.13;4.97;;;;;;;;;;5076645;28;20036;-76
2022/08/12 15:56:35;;;;;;;5.38;4.70;;;;;;;;;;5086380;28;20372;-78
2022/08/12 15:59:02;;;;;;;15.90;4.38;;;;;;;;;;5084921;28;20390;-77
2022/08/12 16:01:28;;;;;;;12.05;6.35;;;;;;;;;;5082418;28;20115;-77
2022/08/12 16:03:56;;;;;;;8.73;4.00;;;;;;;;;;5083510;28;20043;-75
2022/08/12 16:06:23;;;;;;;6.55;4.50;;;;;;;;;;5083819;28;21391;-76
2022/08/12 16:08:50;;;;;;;10.23;5.15;;;;;;;;;;5082672;28;21198;-78
2022/08/12 16:11:20;;;;;;;6.35;4.07;;;;;;;;;;5106733;27;20047;-79
2022/08/12 16:13:47;;;;;;;6.30;5.07;;;;;;;;;;5084812;28;20026;-78
2022/08/12 16:16:13;;;;;;;5.45;4.57;;;;;;;;;;5084854;28;20024;-77
2022/08/12 16:18:39;;;;;;;5.07;3.90;;;;;;;;;;5106346;27;20024;-75
2022/08/12 16:21:06;;;;;;;6.95;5.05;;;;;;;;;;5089389;28;20048;-75
2022/08/12 16:23:33;;;;;;;5.88;4.82;;;;;;;;;;5086796;28;20071;-79
2022/08/12 16:26:02;;;;;;;9.05;4.85;;;;;;;;;;5089737;28;20038;-77
2022/08/12 16:28:29;;;;;;;7.45;4.63;;;;;;;;;;5087482;28;20097;-77
2022/08/12 16:30:55;;;;;;;9.82;5.65;;;;;;;;;;5086894;28;20436;-80
2022/08/12 16:33:21;;;;;;;6.80;4.13;;;;;;;;;;5085153;28;20035;-75
2022/08/12 16:35:50;;;;;;;8.45;4.93;;;;;;;;;;5088909;28;20024;-76